createdAt,value
2017-05-03T00:00:35.480Z,0
2017-05-03T00:01:16.581Z,0
2017-05-03T00:01:57.734Z,0
2017-05-03T00:02:38.491Z,0
2017-05-03T00:03:19.187Z,0
2017-05-03T00:04:00.059Z,0
2017-05-03T00:04:40.831Z,0
2017-05-03T00:05:21.525Z,0
2017-05-03T00:06:02.273Z,0
2017-05-03T00:06:43.295Z,0
2017-05-03T00:07:23.977Z,0
2017-05-03T00:08:04.964Z,0
2017-05-03T00:08:45.654Z,0
2017-05-03T00:09:26.241Z,0
2017-05-03T00:10:06.830Z,0
2017-05-03T00:10:47.387Z,0
2017-05-03T00:11:27.961Z,0
2017-05-03T00:12:08.532Z,0
2017-05-03T00:12:49.099Z,0
2017-05-03T00:13:29.672Z,0
2017-05-03T00:14:10.258Z,0
2017-05-03T00:14:50.836Z,0
2017-05-03T00:15:31.407Z,0
2017-05-03T00:16:12.023Z,0
2017-05-03T00:16:52.594Z,0
2017-05-03T00:17:33.173Z,0
2017-05-03T00:18:13.796Z,0
2017-05-03T00:18:54.371Z,0
2017-05-03T00:19:34.966Z,0
2017-05-03T00:20:15.536Z,0
2017-05-03T00:20:56.128Z,0
2017-05-03T00:21:36.709Z,0
2017-05-03T00:22:17.364Z,0
2017-05-03T00:22:57.949Z,0
2017-05-03T00:23:38.518Z,0
2017-05-03T00:24:19.118Z,0
2017-05-03T00:24:59.690Z,0
2017-05-03T00:25:40.297Z,0
2017-05-03T00:26:20.874Z,0
2017-05-03T00:27:01.445Z,0
2017-05-03T00:27:42.050Z,0
2017-05-03T00:28:22.632Z,0
2017-05-03T00:29:03.223Z,0
2017-05-03T00:29:43.807Z,0
2017-05-03T00:30:24.385Z,0
2017-05-03T00:31:04.977Z,0
2017-05-03T00:31:45.583Z,0
2017-05-03T00:32:26.179Z,0
2017-05-03T00:33:06.774Z,0
2017-05-03T00:33:47.376Z,0
2017-05-03T00:34:27.966Z,0
2017-05-03T00:35:08.561Z,0
2017-05-03T00:35:49.123Z,0
2017-05-03T00:36:29.718Z,0
2017-05-03T00:37:10.288Z,0
2017-05-03T00:37:50.874Z,0
2017-05-03T00:38:31.460Z,0
2017-05-03T00:39:12.031Z,0
2017-05-03T00:39:52.645Z,0
2017-05-03T00:40:33.207Z,0
2017-05-03T00:41:13.812Z,0
2017-05-03T00:41:54.374Z,0
2017-05-03T00:42:34.961Z,0
2017-05-03T00:43:15.536Z,0
2017-05-03T00:43:56.114Z,0
2017-05-03T00:44:36.690Z,0
2017-05-03T00:45:17.284Z,0
2017-05-03T00:45:57.858Z,0
2017-05-03T00:46:38.419Z,0
2017-05-03T00:47:19.008Z,0
2017-05-03T00:47:59.605Z,0
2017-05-03T00:48:40.193Z,0
2017-05-03T00:49:20.753Z,0
2017-05-03T00:50:01.329Z,0
2017-05-03T00:50:41.906Z,0
2017-05-03T00:51:22.497Z,0
2017-05-03T00:52:03.073Z,0
2017-05-03T00:52:43.663Z,0
2017-05-03T00:53:24.256Z,0
2017-05-03T00:54:04.839Z,0
2017-05-03T00:54:46.438Z,0
2017-05-03T00:55:27.037Z,0
2017-05-03T00:56:07.617Z,0
2017-05-03T00:56:48.203Z,0
2017-05-03T00:57:28.812Z,0
2017-05-03T00:58:09.432Z,0
2017-05-03T00:58:49.994Z,0
2017-05-03T00:59:30.584Z,0
2017-05-03T01:00:11.203Z,0
2017-05-03T01:00:51.784Z,0
2017-05-03T01:01:32.379Z,0
2017-05-03T01:02:12.953Z,0
2017-05-03T01:02:53.596Z,0
2017-05-03T01:03:34.198Z,0
2017-05-03T01:04:14.788Z,0
2017-05-03T01:04:55.379Z,0
2017-05-03T01:05:35.987Z,0
2017-05-03T01:06:16.546Z,0
2017-05-03T01:06:57.160Z,0
2017-05-03T01:07:37.757Z,0
2017-05-03T01:08:18.362Z,0
2017-05-03T01:08:58.947Z,0
2017-05-03T01:09:39.536Z,0
2017-05-03T01:10:20.118Z,0
2017-05-03T01:11:00.703Z,0
2017-05-03T01:11:41.283Z,0
2017-05-03T01:12:21.876Z,0
2017-05-03T01:13:02.484Z,0
2017-05-03T01:13:43.103Z,0
2017-05-03T01:14:23.692Z,0
2017-05-03T01:15:04.314Z,0
2017-05-03T01:15:44.897Z,0
2017-05-03T01:16:25.488Z,0
2017-05-03T01:17:06.069Z,0
2017-05-03T01:17:46.650Z,0
2017-05-03T01:18:27.239Z,0
2017-05-03T01:19:07.849Z,0
2017-05-03T01:19:48.431Z,0
2017-05-03T01:20:29.006Z,0
2017-05-03T01:21:09.600Z,0
2017-05-03T01:21:50.267Z,0
2017-05-03T01:22:30.900Z,0
2017-05-03T01:23:11.474Z,0
2017-05-03T01:23:52.083Z,0
2017-05-03T01:24:32.658Z,0
2017-05-03T01:25:13.254Z,0
2017-05-03T01:25:53.824Z,0
2017-05-03T01:26:34.429Z,0
2017-05-03T01:27:15.028Z,0
2017-05-03T01:27:55.608Z,0
2017-05-03T01:28:36.193Z,0
2017-05-03T01:29:16.771Z,0
2017-05-03T01:29:57.349Z,0
2017-05-03T01:30:37.928Z,0
2017-05-03T01:31:18.546Z,0
2017-05-03T01:31:59.141Z,0
2017-05-03T01:32:39.746Z,0
2017-05-03T01:33:20.352Z,0
2017-05-03T01:34:00.951Z,0
2017-05-03T01:34:41.547Z,0
2017-05-03T01:35:22.155Z,0
2017-05-03T01:36:02.746Z,0
2017-05-03T01:36:43.313Z,0
2017-05-03T01:37:23.962Z,0
2017-05-03T01:38:04.562Z,0
2017-05-03T01:38:45.165Z,0
2017-05-03T01:39:25.731Z,0
2017-05-03T01:40:06.320Z,0
2017-05-03T01:40:46.886Z,0
2017-05-03T01:41:27.474Z,0
2017-05-03T01:42:08.076Z,0
2017-05-03T01:42:48.672Z,0
2017-05-03T01:43:29.328Z,0
2017-05-03T01:44:09.939Z,0
2017-05-03T01:44:50.530Z,0
2017-05-03T01:45:31.139Z,0
2017-05-03T01:46:11.742Z,0
2017-05-03T01:46:52.351Z,0
2017-05-03T01:47:32.954Z,0
2017-05-03T01:48:13.557Z,0
2017-05-03T01:48:54.154Z,0
2017-05-03T01:49:34.760Z,0
2017-05-03T01:50:15.356Z,0
2017-05-03T01:50:55.970Z,0
2017-05-03T01:51:36.582Z,0
2017-05-03T01:52:17.169Z,0
2017-05-03T01:52:57.767Z,0
2017-05-03T01:53:38.381Z,0
2017-05-03T01:54:18.968Z,0
2017-05-03T01:54:59.545Z,0
2017-05-03T01:55:40.129Z,0
2017-05-03T01:56:20.717Z,0
2017-05-03T01:57:01.314Z,0
2017-05-03T01:57:41.942Z,0
2017-05-03T01:58:22.521Z,0
2017-05-03T01:59:03.130Z,0
2017-05-03T01:59:43.783Z,0
2017-05-03T02:00:24.360Z,0
2017-05-03T02:01:04.943Z,0
2017-05-03T02:01:45.545Z,0
2017-05-03T02:02:26.120Z,0
2017-05-03T02:03:06.694Z,0
2017-05-03T02:03:47.280Z,0
2017-05-03T02:04:27.857Z,0
2017-05-03T02:05:08.452Z,0
2017-05-03T02:05:49.074Z,0
2017-05-03T02:06:29.681Z,0
2017-05-03T02:07:10.222Z,0
2017-05-03T02:07:50.813Z,0
2017-05-03T02:08:31.422Z,0
2017-05-03T02:09:12.024Z,0
2017-05-03T02:09:52.594Z,0
2017-05-03T02:10:33.224Z,0
2017-05-03T02:11:13.816Z,0
2017-05-03T02:11:54.424Z,0
2017-05-03T02:12:35.020Z,0
2017-05-03T02:13:15.590Z,0
2017-05-03T02:13:56.179Z,0
2017-05-03T02:14:36.777Z,0
2017-05-03T02:15:17.343Z,0
2017-05-03T02:15:57.953Z,0
2017-05-03T02:16:38.525Z,0
2017-05-03T02:17:19.097Z,0
2017-05-03T02:17:59.690Z,0
2017-05-03T02:18:40.303Z,0
2017-05-03T02:19:20.925Z,0
2017-05-03T02:20:01.537Z,0
2017-05-03T02:20:42.113Z,0
2017-05-03T02:21:22.700Z,0
2017-05-03T02:22:03.268Z,0
2017-05-03T02:22:43.882Z,0
2017-05-03T02:23:24.454Z,0
2017-05-03T02:24:05.065Z,0
2017-05-03T02:24:45.718Z,0
2017-05-03T02:25:26.337Z,0
2017-05-03T02:26:06.910Z,0
2017-05-03T02:26:47.497Z,0
2017-05-03T02:27:28.088Z,0
2017-05-03T02:28:08.676Z,0
2017-05-03T02:28:49.274Z,0
2017-05-03T02:29:29.850Z,0
2017-05-03T02:30:10.417Z,0
2017-05-03T02:30:51.021Z,0
2017-05-03T02:31:31.629Z,0
2017-05-03T02:32:12.210Z,0
2017-05-03T02:32:52.811Z,0
2017-05-03T02:33:33.375Z,0
2017-05-03T02:34:13.972Z,0
2017-05-03T02:34:54.552Z,0
2017-05-03T02:35:35.153Z,0
2017-05-03T02:36:15.727Z,0
2017-05-03T02:36:56.319Z,0
2017-05-03T02:37:36.893Z,0
2017-05-03T02:38:17.471Z,0
2017-05-03T02:38:58.068Z,0
2017-05-03T02:39:38.662Z,0
2017-05-03T02:40:19.301Z,0
2017-05-03T02:40:59.888Z,0
2017-05-03T02:41:40.468Z,0
2017-05-03T02:42:21.038Z,0
2017-05-03T02:43:01.615Z,0
2017-05-03T02:43:42.227Z,0
2017-05-03T02:44:22.831Z,0
2017-05-03T02:45:03.402Z,0
2017-05-03T02:45:43.974Z,0
2017-05-03T02:46:24.573Z,0
2017-05-03T02:47:05.143Z,0
2017-05-03T02:47:45.743Z,0
2017-05-03T02:48:26.329Z,0
2017-05-03T02:49:06.911Z,0
2017-05-03T02:49:47.489Z,0
2017-05-03T02:50:28.104Z,0
2017-05-03T02:51:08.734Z,0
2017-05-03T02:51:49.302Z,0
2017-05-03T02:52:29.873Z,0
2017-05-03T02:53:10.457Z,0
2017-05-03T02:53:51.041Z,0
2017-05-03T02:54:31.643Z,0
2017-05-03T02:55:12.216Z,0
2017-05-03T02:55:52.848Z,0
2017-05-03T02:56:33.427Z,0
2017-05-03T02:57:14.002Z,0
2017-05-03T02:57:54.584Z,0
2017-05-03T02:58:35.203Z,0
2017-05-03T02:59:15.781Z,0
2017-05-03T02:59:56.403Z,0
2017-05-03T03:00:36.990Z,0
2017-05-03T03:01:17.582Z,0
2017-05-03T03:01:58.177Z,0
2017-05-03T03:02:38.786Z,0
2017-05-03T03:03:19.360Z,0
2017-05-03T03:03:59.948Z,0
2017-05-03T03:04:40.562Z,0
2017-05-03T03:05:21.154Z,0
2017-05-03T03:06:01.741Z,0
2017-05-03T03:06:42.313Z,0
2017-05-03T03:07:22.905Z,4
2017-05-03T03:08:03.468Z,4
2017-05-03T03:08:44.075Z,4
2017-05-03T03:09:24.665Z,0
2017-05-03T03:10:05.256Z,4
2017-05-03T03:10:45.973Z,4
2017-05-03T03:11:26.649Z,4
2017-05-03T03:12:07.225Z,8
2017-05-03T03:12:47.826Z,4
2017-05-03T03:13:28.436Z,4
2017-05-03T03:14:09.018Z,8
2017-05-03T03:14:49.585Z,8
2017-05-03T03:15:30.155Z,4
2017-05-03T03:16:10.770Z,8
2017-05-03T03:16:51.416Z,8
2017-05-03T03:17:32.010Z,8
2017-05-03T03:18:12.595Z,8
2017-05-03T03:18:53.177Z,8
2017-05-03T03:19:33.757Z,12
2017-05-03T03:20:14.366Z,12
2017-05-03T03:20:54.950Z,12
2017-05-03T03:21:35.520Z,12
2017-05-03T03:22:16.107Z,16
2017-05-03T03:22:56.713Z,16
2017-05-03T03:23:37.294Z,16
2017-05-03T03:24:17.879Z,16
2017-05-03T03:24:58.459Z,20
2017-05-03T03:25:39.048Z,20
2017-05-03T03:26:19.616Z,20
2017-05-03T03:27:00.193Z,20
2017-05-03T03:27:40.775Z,20
2017-05-03T03:28:21.355Z,24
2017-05-03T03:29:01.998Z,24
2017-05-03T03:29:42.597Z,24
2017-05-03T03:30:23.170Z,28
2017-05-03T03:31:03.733Z,28
2017-05-03T03:31:44.316Z,32
2017-05-03T03:32:24.888Z,28
2017-05-03T03:33:05.492Z,28
2017-05-03T03:33:46.082Z,28
2017-05-03T03:34:26.659Z,32
2017-05-03T03:35:07.229Z,36
2017-05-03T03:35:47.863Z,36
2017-05-03T03:36:28.460Z,36
2017-05-03T03:37:09.091Z,40
2017-05-03T03:37:49.683Z,44
2017-05-03T03:38:30.265Z,48
2017-05-03T03:39:10.890Z,48
2017-05-03T03:39:51.506Z,52
2017-05-03T03:40:32.090Z,52
2017-05-03T03:41:12.681Z,56
2017-05-03T03:41:53.251Z,56
2017-05-03T03:42:33.829Z,56
2017-05-03T03:43:14.446Z,56
2017-05-03T03:43:55.035Z,64
2017-05-03T03:44:35.631Z,68
2017-05-03T03:45:16.217Z,72
2017-05-03T03:45:56.803Z,76
2017-05-03T03:46:37.439Z,76
2017-05-03T03:47:18.027Z,84
2017-05-03T03:47:58.603Z,88
2017-05-03T03:48:39.192Z,100
2017-05-03T03:49:19.806Z,108
2017-05-03T03:50:00.448Z,116
2017-05-03T03:50:41.023Z,124
2017-05-03T03:51:21.608Z,124
2017-05-03T03:52:02.185Z,120
2017-05-03T03:52:42.775Z,124
2017-05-03T03:53:23.373Z,132
2017-05-03T03:54:03.975Z,136
2017-05-03T03:54:44.582Z,136
2017-05-03T03:55:25.188Z,140
2017-05-03T03:56:05.783Z,144
2017-05-03T03:56:46.371Z,144
2017-05-03T03:57:26.973Z,152
2017-05-03T03:58:07.571Z,164
2017-05-03T03:58:48.150Z,168
2017-05-03T03:59:28.746Z,164
2017-05-03T04:00:09.349Z,164
2017-05-03T04:00:49.943Z,160
2017-05-03T04:01:30.536Z,164
2017-05-03T04:02:11.109Z,160
2017-05-03T04:02:51.697Z,164
2017-05-03T04:03:32.291Z,156
2017-05-03T04:04:12.914Z,156
2017-05-03T04:04:53.543Z,172
2017-05-03T04:05:35.933Z,180
2017-05-03T04:06:16.526Z,180
2017-05-03T04:06:57.132Z,180
2017-05-03T04:07:37.726Z,184
2017-05-03T04:08:18.367Z,184
2017-05-03T04:08:58.953Z,176
2017-05-03T04:09:39.538Z,172
2017-05-03T04:10:20.107Z,196
2017-05-03T04:11:00.675Z,200
2017-05-03T04:11:41.289Z,192
2017-05-03T04:12:21.861Z,192
2017-05-03T04:13:02.449Z,188
2017-05-03T04:13:43.047Z,192
2017-05-03T04:14:23.627Z,196
2017-05-03T04:15:04.199Z,200
2017-05-03T04:15:44.777Z,212
2017-05-03T04:16:25.362Z,212
2017-05-03T04:17:05.955Z,208
2017-05-03T04:17:46.593Z,204
2017-05-03T04:18:27.244Z,208
2017-05-03T04:19:07.804Z,232
2017-05-03T04:19:48.425Z,256
2017-05-03T04:20:29.022Z,272
2017-05-03T04:21:09.625Z,296
2017-05-03T04:21:50.231Z,332
2017-05-03T04:22:30.843Z,364
2017-05-03T04:23:11.411Z,364
2017-05-03T04:23:52.031Z,364
2017-05-03T04:24:32.613Z,372
2017-05-03T04:25:13.293Z,388
2017-05-03T04:25:53.824Z,400
2017-05-03T04:26:34.476Z,416
2017-05-03T04:27:15.103Z,408
2017-05-03T04:27:55.671Z,380
2017-05-03T04:28:36.254Z,364
2017-05-03T04:29:16.844Z,368
2017-05-03T04:29:57.479Z,356
2017-05-03T04:30:38.054Z,332
2017-05-03T04:31:18.660Z,320
2017-05-03T04:31:59.239Z,328
2017-05-03T04:32:39.806Z,352
2017-05-03T04:33:20.394Z,400
2017-05-03T04:34:00.968Z,428
2017-05-03T04:34:41.559Z,424
2017-05-03T04:35:22.158Z,400
2017-05-03T04:36:02.764Z,396
2017-05-03T04:36:43.366Z,392
2017-05-03T04:37:23.955Z,384
2017-05-03T04:38:04.531Z,472
2017-05-03T04:38:45.105Z,488
2017-05-03T04:39:25.709Z,512
2017-05-03T04:40:06.300Z,504
2017-05-03T04:40:46.870Z,472
2017-05-03T04:41:27.435Z,452
2017-05-03T04:42:08.008Z,448
2017-05-03T04:42:48.587Z,448
2017-05-03T04:43:29.206Z,460
2017-05-03T04:44:09.835Z,432
2017-05-03T04:44:50.423Z,420
2017-05-03T04:45:31.023Z,404
2017-05-03T04:46:11.615Z,424
2017-05-03T04:46:52.185Z,440
2017-05-03T04:47:32.795Z,436
2017-05-03T04:48:13.404Z,452
2017-05-03T04:48:53.990Z,448
2017-05-03T04:49:34.568Z,444
2017-05-03T04:50:15.147Z,456
2017-05-03T04:50:55.736Z,488
2017-05-03T04:51:36.348Z,560
2017-05-03T04:52:16.957Z,588
2017-05-03T04:52:57.531Z,576
2017-05-03T04:53:38.130Z,516
2017-05-03T04:54:18.736Z,416
2017-05-03T04:54:59.357Z,432
2017-05-03T04:55:39.990Z,468
2017-05-03T04:56:20.571Z,452
2017-05-03T04:57:01.186Z,448
2017-05-03T04:57:41.775Z,476
2017-05-03T04:58:22.347Z,476
2017-05-03T04:59:02.988Z,468
2017-05-03T04:59:43.612Z,464
2017-05-03T05:00:24.185Z,464
2017-05-03T05:01:04.809Z,468
2017-05-03T05:01:45.393Z,468
2017-05-03T05:02:25.978Z,484
2017-05-03T05:03:06.575Z,500
2017-05-03T05:03:47.152Z,520
2017-05-03T05:04:27.738Z,568
2017-05-03T05:05:08.314Z,608
2017-05-03T05:05:48.903Z,656
2017-05-03T05:06:29.553Z,728
2017-05-03T05:07:10.145Z,772
2017-05-03T05:07:50.731Z,772
2017-05-03T05:08:31.335Z,740
2017-05-03T05:09:11.928Z,740
2017-05-03T05:09:52.526Z,728
2017-05-03T05:10:33.130Z,736
2017-05-03T05:11:13.732Z,716
2017-05-03T05:11:54.361Z,716
2017-05-03T05:12:34.942Z,660
2017-05-03T05:13:15.532Z,616
2017-05-03T05:13:56.131Z,612
2017-05-03T05:14:37.531Z,600
2017-05-03T05:15:18.119Z,600
2017-05-03T05:15:58.727Z,592
2017-05-03T05:16:39.830Z,584
2017-05-03T05:17:20.459Z,568
2017-05-03T05:18:01.202Z,544
2017-05-03T05:18:41.830Z,532
2017-05-03T05:19:22.359Z,532
2017-05-03T05:20:02.941Z,544
2017-05-03T05:20:43.533Z,556
2017-05-03T05:21:24.110Z,556
2017-05-03T05:22:04.742Z,568
2017-05-03T05:22:45.339Z,576
2017-05-03T05:23:25.991Z,596
2017-05-03T05:24:06.557Z,668
2017-05-03T05:24:47.151Z,720
2017-05-03T05:25:27.772Z,716
2017-05-03T05:26:08.377Z,704
2017-05-03T05:26:48.956Z,720
2017-05-03T05:27:29.565Z,768
2017-05-03T05:28:10.169Z,800
2017-05-03T05:28:50.929Z,768
2017-05-03T05:29:31.556Z,856
2017-05-03T05:30:12.141Z,920
2017-05-03T05:30:52.733Z,900
2017-05-03T05:31:33.360Z,856
2017-05-03T05:32:14.000Z,852
2017-05-03T05:32:54.623Z,888
2017-05-03T05:33:35.266Z,920
2017-05-03T05:34:15.808Z,972
2017-05-03T05:34:56.423Z,996
2017-05-03T05:35:37.052Z,988
2017-05-03T05:36:17.643Z,964
2017-05-03T05:36:58.239Z,932
2017-05-03T05:37:38.816Z,884
2017-05-03T05:38:19.384Z,856
2017-05-03T05:38:59.989Z,860
2017-05-03T05:39:40.554Z,820
2017-05-03T05:40:21.247Z,824
2017-05-03T05:41:01.836Z,840
2017-05-03T05:41:42.527Z,840
2017-05-03T05:42:23.101Z,840
2017-05-03T05:43:03.690Z,836
2017-05-03T05:43:44.274Z,812
2017-05-03T05:44:24.857Z,780
2017-05-03T05:45:05.427Z,780
2017-05-03T05:45:46.018Z,804
2017-05-03T05:46:26.604Z,876
2017-05-03T05:47:07.228Z,880
2017-05-03T05:47:47.797Z,884
2017-05-03T05:48:28.387Z,944
2017-05-03T05:49:08.974Z,960
2017-05-03T05:49:49.569Z,908
2017-05-03T05:50:30.162Z,916
2017-05-03T05:51:10.738Z,960
2017-05-03T05:51:51.322Z,936
2017-05-03T05:52:31.982Z,876
2017-05-03T05:53:12.558Z,908
2017-05-03T05:53:53.141Z,960
2017-05-03T05:54:33.727Z,948
2017-05-03T05:55:14.336Z,924
2017-05-03T05:55:54.926Z,1016
2017-05-03T05:56:35.550Z,1088
2017-05-03T05:57:16.131Z,1092
2017-05-03T05:57:56.702Z,1104
2017-05-03T05:58:37.293Z,1076
2017-05-03T05:59:17.864Z,1068
2017-05-03T05:59:58.456Z,1004
2017-05-03T06:00:39.044Z,1044
2017-05-03T06:01:19.623Z,1108
2017-05-03T06:02:00.209Z,1208
2017-05-03T06:02:40.827Z,1164
2017-05-03T06:03:21.413Z,1136
2017-05-03T06:04:02.027Z,1148
2017-05-03T06:04:42.600Z,1212
2017-05-03T06:05:23.214Z,1240
2017-05-03T06:06:03.800Z,1272
2017-05-03T06:06:44.387Z,1280
2017-05-03T06:07:25.009Z,1296
2017-05-03T06:08:05.583Z,1288
2017-05-03T06:08:46.163Z,1316
2017-05-03T06:09:26.771Z,1340
2017-05-03T06:10:07.345Z,1364
2017-05-03T06:10:47.941Z,1396
2017-05-03T06:11:28.525Z,1404
2017-05-03T06:12:09.115Z,1464
2017-05-03T06:12:49.688Z,1504
2017-05-03T06:13:30.281Z,1464
2017-05-03T06:14:10.854Z,1352
2017-05-03T06:14:51.473Z,1292
2017-05-03T06:15:32.099Z,1340
2017-05-03T06:16:12.690Z,1460
2017-05-03T06:16:53.341Z,1496
2017-05-03T06:17:33.915Z,1544
2017-05-03T06:18:14.527Z,1500
2017-05-03T06:18:55.167Z,1464
2017-05-03T06:19:35.746Z,1400
2017-05-03T06:20:16.327Z,1400
2017-05-03T06:20:56.923Z,1460
2017-05-03T06:21:37.514Z,1552
2017-05-03T06:22:18.092Z,1516
2017-05-03T06:22:58.685Z,1512
2017-05-03T06:23:39.323Z,1536
2017-05-03T06:24:19.962Z,1600
2017-05-03T06:25:00.534Z,1676
2017-05-03T06:25:41.128Z,1748
2017-05-03T06:26:21.694Z,1832
2017-05-03T06:27:02.292Z,1932
2017-05-03T06:27:42.883Z,2084
2017-05-03T06:28:23.513Z,2312
2017-05-03T06:29:04.096Z,2332
2017-05-03T06:29:44.704Z,2352
2017-05-03T06:30:25.309Z,2068
2017-05-03T06:31:05.869Z,1828
2017-05-03T06:31:46.494Z,1728
2017-05-03T06:32:27.141Z,1732
2017-05-03T06:33:07.732Z,1752
2017-05-03T06:33:48.319Z,1696
2017-05-03T06:34:28.889Z,1652
2017-05-03T06:35:09.488Z,1616
2017-05-03T06:35:50.057Z,1620
2017-05-03T06:36:30.668Z,1668
2017-05-03T06:37:11.281Z,1668
2017-05-03T06:37:51.893Z,1632
2017-05-03T06:38:32.468Z,1668
2017-05-03T06:39:13.159Z,1712
2017-05-03T06:39:53.751Z,1760
2017-05-03T06:40:34.341Z,1812
2017-05-03T06:41:14.923Z,1776
2017-05-03T06:41:55.511Z,1736
2017-05-03T06:42:36.101Z,1772
2017-05-03T06:43:16.712Z,1832
2017-05-03T06:43:57.302Z,1904
2017-05-03T06:44:37.959Z,2004
2017-05-03T06:45:18.577Z,1928
2017-05-03T06:45:59.166Z,1892
2017-05-03T06:46:39.782Z,2100
2017-05-03T06:47:20.401Z,2228
2017-05-03T06:48:00.984Z,2360
2017-05-03T06:48:41.609Z,2432
2017-05-03T06:49:22.179Z,2252
2017-05-03T06:50:02.773Z,2160
2017-05-03T06:50:43.379Z,2236
2017-05-03T06:51:24.025Z,2444
2017-05-03T06:52:04.671Z,2584
2017-05-03T06:52:45.296Z,2460
2017-05-03T06:53:25.887Z,2272
2017-05-03T06:54:06.542Z,2232
2017-05-03T06:54:58.852Z,2324
2017-05-03T06:55:46.467Z,2444
2017-05-03T06:56:27.169Z,2444
2017-05-03T06:57:07.772Z,2408
2017-05-03T06:57:48.341Z,2336
2017-05-03T06:58:28.949Z,2212
2017-05-03T06:59:09.546Z,2148
2017-05-03T06:59:50.116Z,2116
2017-05-03T07:00:30.758Z,2040
2017-05-03T07:01:11.271Z,2000
2017-05-03T07:01:51.846Z,1980
2017-05-03T07:02:32.417Z,2096
2017-05-03T07:03:13.017Z,2284
2017-05-03T07:03:53.603Z,2564
2017-05-03T07:04:34.222Z,2804
2017-05-03T07:05:14.814Z,2760
2017-05-03T07:05:55.384Z,2656
2017-05-03T07:06:35.960Z,2644
2017-05-03T07:07:16.535Z,2540
2017-05-03T07:07:57.148Z,2344
2017-05-03T07:08:37.731Z,2212
2017-05-03T07:09:18.326Z,2156
2017-05-03T07:09:58.954Z,2132
2017-05-03T07:10:39.730Z,2148
2017-05-03T07:11:20.333Z,2236
2017-05-03T07:12:00.938Z,2376
2017-05-03T07:12:41.551Z,2440
2017-05-03T07:13:22.170Z,2548
2017-05-03T07:14:02.710Z,2472
2017-05-03T07:14:43.322Z,2408
2017-05-03T07:15:23.946Z,2364
2017-05-03T07:16:04.513Z,2356
2017-05-03T07:16:45.163Z,2352
2017-05-03T07:17:25.803Z,2412
2017-05-03T07:18:06.384Z,2604
2017-05-03T07:18:46.975Z,2644
2017-05-03T07:19:27.574Z,2720
2017-05-03T07:20:08.170Z,2888
2017-05-03T07:20:48.760Z,2984
2017-05-03T07:21:29.333Z,2888
2017-05-03T07:22:09.925Z,2792
2017-05-03T07:22:50.562Z,2660
2017-05-03T07:23:31.156Z,2572
2017-05-03T07:24:11.768Z,2568
2017-05-03T07:24:52.342Z,2648
2017-05-03T07:25:32.931Z,2816
2017-05-03T07:26:13.507Z,2868
2017-05-03T07:26:54.088Z,2964
2017-05-03T07:27:34.712Z,3020
2017-05-03T07:28:15.344Z,2928
2017-05-03T07:28:55.961Z,2920
2017-05-03T07:29:36.559Z,2976
2017-05-03T07:30:17.202Z,3036
2017-05-03T07:30:57.799Z,3228
2017-05-03T07:31:38.390Z,3116
2017-05-03T07:32:18.967Z,3140
2017-05-03T07:33:00.041Z,3488
2017-05-03T07:33:41.740Z,3872
2017-05-03T07:34:22.698Z,4492
2017-05-03T07:35:03.283Z,5232
2017-05-03T07:35:44.108Z,5768
2017-05-03T07:36:24.688Z,5296
2017-05-03T07:37:05.274Z,5580
2017-05-03T07:37:45.859Z,5424
2017-05-03T07:38:26.543Z,4304
2017-05-03T07:39:07.110Z,3784
2017-05-03T07:39:47.778Z,3300
2017-05-03T07:40:28.385Z,3384
2017-05-03T07:41:08.993Z,3568
2017-05-03T07:41:49.571Z,3868
2017-05-03T07:42:30.188Z,4264
2017-05-03T07:43:10.763Z,3400
2017-05-03T07:43:51.353Z,2984
2017-05-03T07:44:31.943Z,3284
2017-05-03T07:45:12.517Z,3776
2017-05-03T07:45:53.159Z,4264
2017-05-03T07:46:33.951Z,4452
2017-05-03T07:47:14.495Z,3960
2017-05-03T07:47:55.096Z,3664
2017-05-03T07:48:35.685Z,3460
2017-05-03T07:50:54.304Z,5764
2017-05-03T07:51:34.891Z,7268
2017-05-03T07:52:15.468Z,4408
2017-05-03T07:52:56.093Z,5444
2017-05-03T07:53:36.726Z,4968
2017-05-03T07:54:17.302Z,6888
2017-05-03T07:54:57.906Z,5320
2017-05-03T07:55:38.520Z,3516
2017-05-03T07:56:19.090Z,3148
2017-05-03T07:56:59.725Z,3220
2017-05-03T07:57:40.308Z,3400
2017-05-03T07:58:21.005Z,3796
2017-05-03T07:59:01.609Z,4512
2017-05-03T07:59:42.206Z,4296
2017-05-03T08:00:22.788Z,4104
2017-05-03T08:01:03.365Z,4496
2017-05-03T08:01:43.944Z,5016
2017-05-03T08:02:24.514Z,5084
2017-05-03T08:03:05.080Z,4668
2017-05-03T08:03:45.664Z,4520
2017-05-03T08:04:26.282Z,4140
2017-05-03T08:05:06.879Z,3776
2017-05-03T08:05:47.472Z,3804
2017-05-03T08:06:28.084Z,4016
2017-05-03T08:07:08.691Z,3728
2017-05-03T08:07:49.294Z,3824
2017-05-03T08:08:29.910Z,4068
2017-05-03T08:09:10.487Z,4752
2017-05-03T08:09:51.090Z,5708
2017-05-03T08:10:31.737Z,6180
2017-05-03T08:11:12.313Z,4264
2017-05-03T08:11:53.109Z,4252
2017-05-03T08:12:33.724Z,4300
2017-05-03T08:13:14.295Z,4716
2017-05-03T08:13:54.877Z,5136
2017-05-03T08:14:35.583Z,5028
2017-05-03T08:15:16.167Z,5184
2017-05-03T08:15:56.768Z,5248
2017-05-03T08:16:37.367Z,5652
2017-05-03T08:17:17.953Z,5748
2017-05-03T08:17:58.552Z,5788
2017-05-03T08:18:39.164Z,5996
2017-05-03T08:19:20.731Z,5872
2017-05-03T08:20:01.510Z,5764
2017-05-03T08:20:42.119Z,5512
2017-05-03T08:21:22.737Z,5432
2017-05-03T08:22:03.330Z,5724
2017-05-03T08:22:43.923Z,6228
2017-05-03T08:23:24.566Z,6052
2017-05-03T08:24:05.163Z,5740
2017-05-03T08:24:45.735Z,5748
2017-05-03T08:25:26.328Z,5712
2017-05-03T08:26:06.937Z,5280
2017-05-03T08:26:47.571Z,4900
2017-05-03T08:27:28.158Z,4768
2017-05-03T08:28:08.755Z,4700
2017-05-03T08:28:49.356Z,4732
2017-05-03T08:29:29.946Z,5000
2017-05-03T08:30:10.530Z,5620
2017-05-03T08:30:51.112Z,5960
2017-05-03T08:31:31.687Z,5424
2017-05-03T08:32:12.295Z,5404
2017-05-03T08:32:52.895Z,5240
2017-05-03T08:33:33.476Z,4880
2017-05-03T08:34:14.174Z,4536
2017-05-03T08:34:54.815Z,4432
2017-05-03T08:35:35.439Z,4500
2017-05-03T08:36:16.177Z,4512
2017-05-03T08:36:56.742Z,4628
2017-05-03T08:37:37.339Z,4592
2017-05-03T08:38:17.943Z,4304
2017-05-03T08:38:58.539Z,4088
2017-05-03T08:39:39.138Z,3972
2017-05-03T08:40:19.747Z,3928
2017-05-03T08:41:00.338Z,3944
2017-05-03T08:41:40.943Z,4020
2017-05-03T08:42:21.527Z,4232
2017-05-03T08:43:02.096Z,4688
2017-05-03T08:43:42.699Z,5428
2017-05-03T08:44:23.282Z,6112
2017-05-03T08:45:03.868Z,6440
2017-05-03T08:45:44.476Z,7020
2017-05-03T08:46:25.058Z,6164
2017-05-03T08:47:05.655Z,5400
2017-05-03T08:47:46.249Z,5332
2017-05-03T08:48:26.882Z,5332
2017-05-03T08:49:07.469Z,5288
2017-05-03T08:49:48.035Z,5160
2017-05-03T08:50:28.613Z,5264
2017-05-03T08:51:09.194Z,5564
2017-05-03T08:51:49.789Z,5976
2017-05-03T08:52:30.423Z,6164
2017-05-03T08:53:11.020Z,5832
2017-05-03T08:53:51.622Z,5740
2017-05-03T08:54:32.204Z,5928
2017-05-03T08:55:12.791Z,6348
2017-05-03T08:55:53.364Z,6508
2017-05-03T08:56:33.961Z,6856
2017-05-03T08:57:14.536Z,7768
2017-05-03T08:57:55.102Z,9096
2017-05-03T08:58:35.674Z,10436
2017-05-03T08:59:16.261Z,11616
2017-05-03T08:59:56.844Z,12312
2017-05-03T09:00:37.433Z,11636
2017-05-03T09:01:18.007Z,10616
2017-05-03T09:01:58.614Z,10864
2017-05-03T09:02:39.187Z,10668
2017-05-03T09:03:19.786Z,11628
2017-05-03T09:04:00.369Z,13080
2017-05-03T09:04:40.949Z,13164
2017-05-03T09:05:21.572Z,11604
2017-05-03T09:06:02.150Z,11452
2017-05-03T09:06:42.734Z,11384
2017-05-03T09:07:23.314Z,11376
2017-05-03T09:08:03.888Z,11240
2017-05-03T09:08:44.501Z,12092
2017-05-03T09:09:25.080Z,13520
2017-05-03T09:10:05.669Z,14472
2017-05-03T09:10:46.255Z,13888
2017-05-03T09:11:26.833Z,13476
2017-05-03T09:12:07.420Z,14148
2017-05-03T09:12:48.026Z,13652
2017-05-03T09:13:28.588Z,13900
2017-05-03T09:14:09.201Z,14092
2017-05-03T09:14:49.798Z,13212
2017-05-03T09:15:30.377Z,12640
2017-05-03T09:16:11.001Z,13076
2017-05-03T09:16:51.577Z,13232
2017-05-03T09:17:32.174Z,13384
2017-05-03T09:18:12.878Z,11740
2017-05-03T09:18:53.486Z,12532
2017-05-03T09:19:34.096Z,11920
2017-05-03T09:20:14.737Z,11368
2017-05-03T09:20:55.336Z,11044
2017-05-03T09:21:35.927Z,11460
2017-05-03T09:22:16.660Z,9736
2017-05-03T09:22:57.257Z,9040
2017-05-03T09:23:37.889Z,8760
2017-05-03T09:24:18.445Z,7884
2017-05-03T09:24:59.111Z,7296
2017-05-03T09:25:39.724Z,7332
2017-05-03T09:26:20.309Z,7484
2017-05-03T09:27:00.901Z,8056
2017-05-03T09:27:41.514Z,8448